Historique des mesures à Cassis (13260), France
Quotidien Résumé Mars 14, 2017 Unités:  US    Métrique   Métrique/US
« Précédent (Jour)
Suivant (Jour) »
Quotidien Hebdomadaire Mensuel Annuel Période au choix
  Maximum: Minimum: Moyenne:
Température: 32 °F 51.1 °F 55.9 °F
Point de rosée: 32 °F 41.5 °F 44.2 °F
Humidité: Humidity % 54 % 62 %
Vitesse du vent: WindSpeedKMH mph 0.0 mph 2 mph
Rafales: WindSpeedGustKMH mph - -
Vent:- - SE
Pression: 0 in 30.2 in -
Précipitations: 0 in    
Historical Graphs
 
 
Mesures pour : Mars 14, 2017
Heure Temperature Point de rosée Pression Vent Vitesse du vent Rafales Humidité Pluie (par heure) Conditions
32 °F 32 °F 0 in Calm     Humidity % 0 in SoftwareType W/m2
00:11 52.5 °F 43.2 °F 30.2 in North 1.8 mph 3.2 mph 70 % 0 in open2300-1.11 W/m2
01:10 51.8 °F 42.4 °F 30.2 in Calm   2.9 mph 70 % 0 in open2300-1.11 W/m2
02:11 51.6 °F 42.3 °F 30.2 in North 1.8 mph 2.1 mph 70 % 0 in open2300-1.11 W/m2
03:10 51.1 °F 42.1 °F 30.2 in NNE 2.9 mph 2.9 mph 71 % 0 in open2300-1.11 W/m2
04:11 51.1 °F 42.1 °F 30.2 in North 1.8 mph 3.2 mph 71 % 0 in open2300-1.11 W/m2
05:10 51.6 °F 41.7 °F 30.2 in NNW 1.4 mph 2.9 mph 69 % 0 in open2300-1.11 W/m2
06:11 51.3 °F 41.5 °F 30.2 in NW 3.2 mph 3.2 mph 69 % 0 in open2300-1.11 W/m2
07:10 51.6 °F 41.7 °F 30.2 in NNE 3.2 mph 3.2 mph 69 % 0 in open2300-1.11 W/m2
08:11 53.4 °F 42.3 °F 30.2 in NNE 2.1 mph 2.1 mph 66 % 0 in open2300-1.11 W/m2
09:10 57 °F 45.3 °F 30.3 in Calm     65 % 0 in open2300-1.11 W/m2
10:11 58.6 °F 46.9 °F 30.3 in South 2.1 mph 3.2 mph 65 % 0 in open2300-1.11 W/m2
11:10 61.7 °F 48.2 °F 30.3 in Calm   4.3 mph 61 % 0 in open2300-1.11 W/m2
12:11 63.7 °F 48.6 °F 30.3 in SSE 4.0 mph 4.0 mph 58 % 0 in open2300-1.11 W/m2
13:10 64.2 °F 47.7 °F 30.3 in Calm   6.4 mph 55 % 0 in open2300-1.11 W/m2
14:11 64 °F 46.9 °F 30.3 in SE 6.1 mph 6.1 mph 54 % 0 in open2300-1.11 W/m2
15:11 63.5 °F 48.4 °F 30.3 in SE 10.8 mph 10.8 mph 58 % 0 in open2300-1.11 W/m2
16:11 62.4 °F 49.3 °F 30.3 in South 4.7 mph 4.7 mph 62 % 0 in open2300-1.11 W/m2
17:10 62.1 °F 48 °F 30.3 in Calm   2.9 mph 60 % 0 in open2300-1.11 W/m2
18:11 61.3 °F 47.8 °F 30.3 in Calm   2.9 mph 61 % 0 in open2300-1.11 W/m2
19:10 58.5 °F 45.9 °F 30.3 in Calm     63 % 0 in open2300-1.11 W/m2
20:11 56.3 °F 43 °F 30.3 in NNW 4.0 mph 10.8 mph 61 % 0 in open2300-1.11 W/m2
21:10 55.8 °F 43.3 °F 30.3 in NW 1.1 mph 1.1 mph 63 % 0 in open2300-1.11 W/m2
22:11 55 °F 43.9 °F 30.2 in Calm     66 % 0 in open2300-1.11 W/m2
23:10 54.5 °F 43.3 °F 30.3 in Calm     66 % 0 in open2300-1.11 W/m2
Observations météo à CASSIS
WU-History script by Weather Underground - 1 mb